createdAt,value
2022-09-20T00:02:13.120Z,1.60
2022-09-20T00:04:35.747Z,1.70
2022-09-20T00:06:58.310Z,1.60
2022-09-20T00:09:20.822Z,1.70
2022-09-20T00:11:44.422Z,1.60
2022-09-20T00:14:08.788Z,1.50
2022-09-20T00:16:34.253Z,1.60
2022-09-20T00:18:58.611Z,1.42
2022-09-20T00:21:23.772Z,1.40
2022-09-20T00:23:46.669Z,1.70
2022-09-20T00:26:09.260Z,1.48
2022-09-20T00:28:32.239Z,1.52
2022-09-20T00:30:56.304Z,1.45
2022-09-20T00:33:19.481Z,1.50
2022-09-20T00:35:45.467Z,1.48
2022-09-20T00:38:09.072Z,1.63
2022-09-20T00:40:31.709Z,1.65
2022-09-20T00:42:54.379Z,1.67
2022-09-20T00:45:30.070Z,1.67
2022-09-20T00:48:03.727Z,1.50
2022-09-20T00:50:38.179Z,1.40
2022-09-20T00:53:06.513Z,1.40
2022-09-20T00:55:29.309Z,1.30
2022-09-20T00:57:53.322Z,1.20
2022-09-20T01:00:16.113Z,1.30
2022-09-20T01:02:42.908Z,1.20
2022-09-20T01:05:07.564Z,1.30
2022-09-20T01:07:30.176Z,1.35
2022-09-20T01:09:52.883Z,1.20
2022-09-20T01:12:19.518Z,1.33
2022-09-20T01:14:44.088Z,1.20
2022-09-20T01:17:07.964Z,1.40
2022-09-20T01:19:37.606Z,1.50
2022-09-20T01:22:04.418Z,1.40
2022-09-20T01:24:43.027Z,1.55
2022-09-20T01:27:33.495Z,1.52
2022-09-20T01:30:06.246Z,1.60
2022-09-20T01:32:44.415Z,1.75
2022-09-20T01:35:09.142Z,2.00
2022-09-20T01:37:57.505Z,1.98
2022-09-20T01:40:47.961Z,3.75
2022-09-20T01:43:26.566Z,2.00
2022-09-20T01:45:49.921Z,2.03
2022-09-20T01:48:33.446Z,1.77
2022-09-20T01:51:19.041Z,1.85
2022-09-20T01:54:22.661Z,1.70
2022-09-20T01:57:17.175Z,1.88
2022-09-20T01:59:51.709Z,1.90
2022-09-20T02:02:16.959Z,1.90
2022-09-20T02:05:23.706Z,2.00
2022-09-20T02:08:03.242Z,2.00
2022-09-20T02:10:49.288Z,2.33
2022-09-20T02:13:45.809Z,2.03
2022-09-20T02:16:23.551Z,1.90
2022-09-20T02:19:30.871Z,2.08
2022-09-20T02:22:26.846Z,2.00
2022-09-20T02:25:23.039Z,1.98
2022-09-20T02:28:30.924Z,1.80
2022-09-20T02:30:59.267Z,1.83
2022-09-20T02:33:46.183Z,2.00
2022-09-20T02:36:31.203Z,1.90
2022-09-20T02:39:02.950Z,1.95
2022-09-20T02:41:46.752Z,2.08
2022-09-20T02:44:35.292Z,1.90
2022-09-20T02:47:10.100Z,1.90
2022-09-20T02:50:00.444Z,2.20
2022-09-20T02:52:58.359Z,2.08
2022-09-20T02:55:41.380Z,2.13
2022-09-20T02:58:20.051Z,2.28
2022-09-20T03:00:54.162Z,2.20
2022-09-20T03:03:43.020Z,2.17
2022-09-20T03:06:38.308Z,2.15
2022-09-20T03:09:25.909Z,2.28
2022-09-20T03:12:28.670Z,2.60
2022-09-20T03:15:09.775Z,2.30
2022-09-20T03:18:19.725Z,2.80
2022-09-20T03:21:00.651Z,2.53
2022-09-20T03:23:42.044Z,2.72
2022-09-20T03:26:23.554Z,2.58
2022-09-20T03:29:05.489Z,3.00
2022-09-20T03:32:23.786Z,2.65
2022-09-20T03:35:16.387Z,2.65
2022-09-20T03:37:54.700Z,2.80
2022-09-20T03:40:26.257Z,2.50
2022-09-20T03:42:51.933Z,2.60
2022-09-20T03:45:20.105Z,2.70
2022-09-20T03:47:45.420Z,2.42
2022-09-20T03:50:36.966Z,3.10
2022-09-20T03:53:14.550Z,2.65
2022-09-20T03:55:52.147Z,2.22
2022-09-20T03:58:36.394Z,2.70
2022-09-20T04:01:08.733Z,2.30
2022-09-20T04:04:08.652Z,2.60
2022-09-20T04:06:40.210Z,2.55
2022-09-20T04:09:24.329Z,2.40
2022-09-20T04:12:24.914Z,2.35
2022-09-20T04:14:58.456Z,2.40
2022-09-20T04:17:21.000Z,2.40
2022-09-20T04:19:52.125Z,2.38
2022-09-20T04:22:14.925Z,2.45
2022-09-20T04:24:53.616Z,2.35
2022-09-20T04:27:46.967Z,2.90
2022-09-20T04:30:21.611Z,2.80
2022-09-20T04:33:08.219Z,2.30
2022-09-20T04:36:03.364Z,2.83
2022-09-20T04:38:26.948Z,2.45
2022-09-20T04:41:16.651Z,2.35
2022-09-20T04:44:13.211Z,2.15
2022-09-20T04:46:56.133Z,2.38
2022-09-20T04:49:40.178Z,2.35
2022-09-20T04:52:04.411Z,2.28
2022-09-20T04:55:04.184Z,2.30
2022-09-20T04:57:59.620Z,2.60
2022-09-20T05:01:01.042Z,2.55
2022-09-20T05:04:02.479Z,2.38
2022-09-20T05:06:52.631Z,2.72
2022-09-20T05:09:28.341Z,2.70
2022-09-20T05:12:01.804Z,2.60
2022-09-20T05:14:45.959Z,2.50
2022-09-20T05:17:41.808Z,3.00
2022-09-20T05:20:19.533Z,3.78
2022-09-20T05:22:48.230Z,3.70
2022-09-20T05:25:48.441Z,3.05
2022-09-20T05:28:27.390Z,2.80
2022-09-20T05:30:55.424Z,2.40
2022-09-20T05:33:33.689Z,3.05
2022-09-20T05:36:14.853Z,2.53
2022-09-20T05:39:03.527Z,2.60
2022-09-20T05:41:36.973Z,2.20
2022-09-20T05:44:25.091Z,2.20
2022-09-20T05:46:57.643Z,2.35
2022-09-20T05:49:38.489Z,2.75
2022-09-20T05:52:03.936Z,2.65
2022-09-20T05:54:44.463Z,2.58
2022-09-20T05:57:31.288Z,3.10
2022-09-20T06:00:16.765Z,2.60
2022-09-20T06:02:48.546Z,3.10
2022-09-20T06:05:23.099Z,2.80
2022-09-20T06:08:23.807Z,2.72
2022-09-20T06:11:07.646Z,2.78
2022-09-20T06:13:48.175Z,2.60
2022-09-20T06:16:26.892Z,2.90
2022-09-20T06:19:17.135Z,2.78
2022-09-20T06:21:55.097Z,2.70
2022-09-20T06:24:43.272Z,2.50
2022-09-20T06:27:13.887Z,2.60
2022-09-20T06:29:41.700Z,3.13
2022-09-20T06:32:04.352Z,2.70
2022-09-20T06:34:28.461Z,2.53
2022-09-20T06:37:33.182Z,2.50
2022-09-20T06:40:45.467Z,2.42
2022-09-20T06:43:08.096Z,2.03
2022-09-20T06:45:32.297Z,2.25
2022-09-20T06:47:55.088Z,2.30
2022-09-20T06:50:18.193Z,2.13
2022-09-20T06:52:42.400Z,2.10
2022-09-20T06:55:07.468Z,2.40
2022-09-20T06:57:40.635Z,2.30
2022-09-20T07:00:06.405Z,2.33
2022-09-20T07:02:29.056Z,2.50
2022-09-20T07:04:55.459Z,2.28
2022-09-20T07:07:19.321Z,2.30
2022-09-20T07:09:42.020Z,2.72
2022-09-20T07:12:04.644Z,2.50
2022-09-20T07:14:28.877Z,2.33
2022-09-20T07:16:51.453Z,2.30
2022-09-20T07:19:14.391Z,2.30
2022-09-20T07:21:37.056Z,2.42
2022-09-20T07:24:00.089Z,2.38
2022-09-20T07:26:25.837Z,2.50
2022-09-20T07:28:50.760Z,2.90
2022-09-20T07:31:14.520Z,2.50
2022-09-20T07:33:37.117Z,2.70
2022-09-20T07:35:59.712Z,2.78
2022-09-20T07:38:23.179Z,2.70
2022-09-20T07:40:54.462Z,2.58
2022-09-20T07:43:17.143Z,2.40
2022-09-20T07:45:39.967Z,2.40
2022-09-20T07:48:05.354Z,2.50
2022-09-20T07:50:28.165Z,2.72
2022-09-20T07:52:50.968Z,2.40
2022-09-20T07:55:13.708Z,2.50
2022-09-20T07:57:38.221Z,2.55
2022-09-20T08:00:01.272Z,2.60
2022-09-20T08:02:24.020Z,2.47
2022-09-20T08:04:48.053Z,2.53
2022-09-20T08:07:12.587Z,3.00
2022-09-20T08:09:35.169Z,2.30
2022-09-20T08:11:58.467Z,2.55
2022-09-20T08:14:21.783Z,3.30
2022-09-20T08:16:47.693Z,3.03
2022-09-20T08:19:15.897Z,3.03
2022-09-20T08:21:39.855Z,2.42
2022-09-20T08:24:04.219Z,2.58
2022-09-20T08:26:29.017Z,2.60
2022-09-20T08:28:56.684Z,2.80
2022-09-20T08:31:22.041Z,2.47
2022-09-20T08:33:46.048Z,2.80
2022-09-20T08:36:12.928Z,3.17
2022-09-20T08:41:27.095Z,3.70
2022-09-20T08:43:57.906Z,3.33
2022-09-20T08:46:26.000Z,2.95
2022-09-20T08:48:48.781Z,3.03
2022-09-20T08:51:22.750Z,3.10
2022-09-20T08:53:50.553Z,3.30
2022-09-20T08:56:13.294Z,3.10
2022-09-20T08:58:36.602Z,3.30
2022-09-20T09:01:00.216Z,3.10
2022-09-20T09:03:22.867Z,3.58
2022-09-20T09:05:48.365Z,3.17
2022-09-20T09:08:16.559Z,3.72
2022-09-20T09:10:43.452Z,3.53
2022-09-20T09:13:06.975Z,3.65
2022-09-20T09:15:33.785Z,3.33
2022-09-20T09:17:56.615Z,3.33
2022-09-20T09:20:22.608Z,2.97
2022-09-20T09:22:47.692Z,3.92
2022-09-20T09:25:34.342Z,3.05
2022-09-20T09:28:06.105Z,3.15
2022-09-20T09:30:40.830Z,4.15
2022-09-20T09:33:29.524Z,3.80
2022-09-20T09:36:14.891Z,2.80
2022-09-20T09:38:40.361Z,2.70
2022-09-20T09:41:30.002Z,2.72
2022-09-20T09:44:01.131Z,2.45
2022-09-20T09:46:26.515Z,2.38
2022-09-20T09:49:15.938Z,2.40
2022-09-20T09:51:39.466Z,2.45
2022-09-20T09:54:03.467Z,2.47
2022-09-20T09:56:47.344Z,1.98
2022-09-20T09:59:35.796Z,2.25
2022-09-20T10:02:29.543Z,1.88
2022-09-20T10:05:19.198Z,1.60
2022-09-20T10:08:03.237Z,1.65
2022-09-20T10:10:32.547Z,1.60
2022-09-20T10:12:55.037Z,1.50
2022-09-20T10:16:02.125Z,1.70
2022-09-20T10:18:43.961Z,1.77
2022-09-20T10:21:51.808Z,1.58
2022-09-20T10:24:43.028Z,3.40
2022-09-20T10:27:14.540Z,1.67
2022-09-20T10:29:49.774Z,1.70
2022-09-20T10:32:36.413Z,1.38
2022-09-20T10:35:29.981Z,1.30
2022-09-20T10:38:05.785Z,1.60
2022-09-20T10:40:51.201Z,1.50
2022-09-20T10:43:28.312Z,1.35
2022-09-20T10:46:32.818Z,1.42
2022-09-20T10:49:25.055Z,1.40
2022-09-20T10:52:11.230Z,1.50
2022-09-20T10:54:55.057Z,2.20
2022-09-20T10:57:20.310Z,2.60
2022-09-20T10:59:55.441Z,2.15
2022-09-20T11:02:47.061Z,2.15
2022-09-20T11:05:20.933Z,2.45
2022-09-20T11:08:09.690Z,2.40
2022-09-20T11:10:47.069Z,2.90
2022-09-20T11:13:20.313Z,2.80
2022-09-20T11:16:03.337Z,2.88
2022-09-20T11:18:41.465Z,2.72
2022-09-20T11:21:25.867Z,2.30
2022-09-20T11:23:55.214Z,2.05
2022-09-20T11:26:26.096Z,2.00
2022-09-20T11:28:54.126Z,1.50
2022-09-20T11:31:28.241Z,2.00
2022-09-20T11:34:03.579Z,1.77
2022-09-20T11:36:34.505Z,1.90
2022-09-20T11:39:05.409Z,1.75
2022-09-20T11:41:30.385Z,1.52
2022-09-20T11:43:55.843Z,1.60
2022-09-20T11:46:31.188Z,1.80
2022-09-20T11:49:16.403Z,1.55
2022-09-20T11:52:10.586Z,1.48
2022-09-20T11:54:45.618Z,1.63
2022-09-20T11:57:15.826Z,1.90
2022-09-20T11:59:42.175Z,1.80
2022-09-20T12:02:16.956Z,1.80
2022-09-20T12:04:44.746Z,1.83
2022-09-20T12:07:19.167Z,1.95
2022-09-20T12:09:45.715Z,1.38
2022-09-20T12:12:28.428Z,1.33
2022-09-20T12:14:56.186Z,1.52
2022-09-20T12:17:57.372Z,1.50
2022-09-20T12:20:35.166Z,1.40
2022-09-20T12:23:35.645Z,1.30
2022-09-20T12:26:07.152Z,1.05
2022-09-20T12:28:43.724Z,0.98
2022-09-20T12:31:18.703Z,1.40
2022-09-20T12:34:12.312Z,1.20
2022-09-20T12:36:52.185Z,1.25
2022-09-20T12:39:26.316Z,1.20
2022-09-20T12:42:09.900Z,1.50
2022-09-20T12:44:35.294Z,1.75
2022-09-20T12:47:12.489Z,1.20
2022-09-20T12:50:05.875Z,1.10
2022-09-20T12:52:56.321Z,1.40
2022-09-20T12:55:35.405Z,1.30
2022-09-20T12:58:11.237Z,1.35
2022-09-20T13:00:46.734Z,1.38
2022-09-20T13:03:16.780Z,1.58
2022-09-20T13:05:40.679Z,1.50
2022-09-20T13:08:14.977Z,1.40
2022-09-20T13:10:45.385Z,1.33
2022-09-20T13:13:23.955Z,0.80
2022-09-20T13:15:50.458Z,0.50
2022-09-20T13:18:15.521Z,0.70
2022-09-20T13:20:40.107Z,0.70
2022-09-20T13:23:05.138Z,0.90
2022-09-20T13:25:28.667Z,0.60
2022-09-20T13:28:09.004Z,0.90
2022-09-20T13:30:32.794Z,0.52
2022-09-20T13:32:55.436Z,0.70
2022-09-20T13:35:24.125Z,1.75
2022-09-20T13:37:59.089Z,0.90
2022-09-20T13:43:23.223Z,0.90
2022-09-20T13:45:52.072Z,1.00
2022-09-20T13:48:16.712Z,1.00
2022-09-20T13:50:44.913Z,0.95
2022-09-20T13:53:39.526Z,1.10
2022-09-20T13:56:01.515Z,1.27
2022-09-20T13:58:34.830Z,1.40
2022-09-20T14:01:02.837Z,1.40
2022-09-20T14:03:27.807Z,1.30
2022-09-20T14:05:53.359Z,1.00
2022-09-20T14:08:23.677Z,1.15
2022-09-20T14:10:46.967Z,1.10
2022-09-20T14:13:16.246Z,1.20
2022-09-20T14:15:43.644Z,0.70
2022-09-20T14:18:09.185Z,0.68
2022-09-20T14:20:32.116Z,0.57
2022-09-20T14:22:59.040Z,0.45
2022-09-20T14:25:25.520Z,0.88
2022-09-20T14:27:48.175Z,0.90
2022-09-20T14:30:36.321Z,0.70
2022-09-20T14:32:59.385Z,0.90
2022-09-20T14:35:22.544Z,0.73
2022-09-20T14:37:50.968Z,0.70
2022-09-20T14:40:40.816Z,0.98
2022-09-20T14:43:07.604Z,1.20
2022-09-20T14:45:39.711Z,1.20
2022-09-20T14:48:10.820Z,1.02
2022-09-20T14:50:43.513Z,1.00
2022-09-20T14:53:26.859Z,1.10
2022-09-20T14:56:07.098Z,1.25
2022-09-20T14:58:29.893Z,1.13
2022-09-20T15:01:05.190Z,0.95
2022-09-20T15:03:33.973Z,1.00
2022-09-20T15:05:56.795Z,1.27
2022-09-20T15:08:20.395Z,1.20
2022-09-20T15:10:42.915Z,1.02
2022-09-20T15:13:05.855Z,1.00
2022-09-20T15:15:28.385Z,1.10
2022-09-20T15:17:51.008Z,1.10
2022-09-20T15:20:18.698Z,1.30
2022-09-20T15:22:44.807Z,1.10
2022-09-20T15:25:13.192Z,0.82
2022-09-20T15:27:35.651Z,1.20
2022-09-20T15:29:58.153Z,1.30
2022-09-20T15:32:20.878Z,1.40
2022-09-20T15:34:43.414Z,1.10
2022-09-20T15:37:06.338Z,1.17
2022-09-20T15:39:29.044Z,0.65
2022-09-20T15:41:52.967Z,0.80
2022-09-20T15:44:16.927Z,1.05
2022-09-20T15:46:39.475Z,1.00
2022-09-20T15:49:04.695Z,0.95
2022-09-20T15:51:28.535Z,1.08
2022-09-20T15:54:03.641Z,1.30
2022-09-20T15:56:28.891Z,0.90
2022-09-20T15:58:59.178Z,0.60
2022-09-20T16:01:21.756Z,0.70
2022-09-20T16:03:45.710Z,0.70
2022-09-20T16:06:08.552Z,0.68
2022-09-20T16:08:35.958Z,0.70
2022-09-20T16:10:59.831Z,0.70
2022-09-20T16:13:23.282Z,0.60
2022-09-20T16:15:53.875Z,0.70
2022-09-20T16:18:35.003Z,0.63
2022-09-20T16:21:06.728Z,0.50
2022-09-20T16:23:29.326Z,0.70
2022-09-20T16:25:52.756Z,0.75
2022-09-20T16:28:15.383Z,0.68
2022-09-20T16:30:37.844Z,0.80
2022-09-20T16:33:05.396Z,1.20
2022-09-20T16:35:29.241Z,1.10
2022-09-20T16:37:52.053Z,1.00
2022-09-20T16:40:15.184Z,1.40
2022-09-20T16:42:38.716Z,1.20
2022-09-20T16:45:01.360Z,1.70
2022-09-20T16:47:24.859Z,1.70
2022-09-20T16:49:48.443Z,1.70
2022-09-20T16:52:11.216Z,1.77
2022-09-20T16:54:33.920Z,1.73
2022-09-20T16:56:56.479Z,2.13
2022-09-20T16:59:23.144Z,1.70
2022-09-20T17:01:45.840Z,1.60
2022-09-20T17:04:09.495Z,1.55
2022-09-20T17:06:34.264Z,1.27
2022-09-20T17:08:59.140Z,1.40
2022-09-20T17:11:24.576Z,1.30
2022-09-20T17:13:47.490Z,1.80
2022-09-20T17:16:13.033Z,3.35
2022-09-20T17:18:36.048Z,3.25
2022-09-20T17:21:06.388Z,2.70
2022-09-20T17:23:28.868Z,2.85
2022-09-20T17:26:09.117Z,2.63
2022-09-20T17:28:39.715Z,2.55
2022-09-20T17:31:02.933Z,2.42
2022-09-20T17:33:28.530Z,2.22
2022-09-20T17:35:51.851Z,2.20
2022-09-20T17:38:14.987Z,2.17
2022-09-20T17:40:37.541Z,2.30
2022-09-20T17:43:00.475Z,2.13
2022-09-20T17:45:22.999Z,2.30
2022-09-20T17:47:45.852Z,2.50
2022-09-20T17:50:14.662Z,2.67
2022-09-20T17:52:37.179Z,2.45
2022-09-20T17:54:59.632Z,2.83
2022-09-20T17:57:22.197Z,2.33
2022-09-20T17:59:44.839Z,2.78
2022-09-20T18:02:09.227Z,2.67
2022-09-20T18:04:31.844Z,3.15
2022-09-20T18:06:55.663Z,3.10
2022-09-20T18:09:39.930Z,3.25
2022-09-20T18:12:02.515Z,3.50
2022-09-20T18:14:28.390Z,3.50
2022-09-20T18:16:57.051Z,3.53
2022-09-20T18:19:21.439Z,3.60
2022-09-20T18:21:44.112Z,3.38
2022-09-20T18:24:08.907Z,3.70
2022-09-20T18:26:32.775Z,3.55
2022-09-20T18:29:12.450Z,3.25
2022-09-20T18:31:45.360Z,3.40
2022-09-20T18:34:11.654Z,3.25
2022-09-20T18:36:36.334Z,3.00
2022-09-20T18:38:59.897Z,2.53
2022-09-20T18:41:25.569Z,2.60
2022-09-20T18:43:48.450Z,2.78
2022-09-20T18:46:12.319Z,2.60
2022-09-20T18:48:35.052Z,2.42
2022-09-20T18:51:02.067Z,2.13
2022-09-20T18:53:26.401Z,2.30
2022-09-20T18:55:49.871Z,2.30
2022-09-20T18:58:13.285Z,2.15
2022-09-20T19:00:36.597Z,2.45
2022-09-20T19:03:16.188Z,2.20
2022-09-20T19:05:46.569Z,2.00
2022-09-20T19:08:37.122Z,2.03
2022-09-20T19:11:07.848Z,2.25
2022-09-20T19:13:39.001Z,2.30
2022-09-20T19:16:15.441Z,2.10
2022-09-20T19:19:02.629Z,2.42
2022-09-20T19:21:25.254Z,2.05
2022-09-20T19:24:15.349Z,2.17
2022-09-20T19:26:38.742Z,2.40
2022-09-20T19:29:02.087Z,2.40
2022-09-20T19:31:27.570Z,2.30
2022-09-20T19:33:53.985Z,2.63
2022-09-20T19:36:17.287Z,2.35
2022-09-20T19:39:13.135Z,2.78
2022-09-20T19:42:14.776Z,2.42
2022-09-20T19:44:56.893Z,2.70
2022-09-20T19:47:46.504Z,2.63
2022-09-20T19:50:28.147Z,2.83
2022-09-20T19:52:51.092Z,2.45
2022-09-20T19:55:14.405Z,2.30
2022-09-20T19:57:47.138Z,2.47
2022-09-20T20:00:18.330Z,2.25
2022-09-20T20:02:44.894Z,2.28
2022-09-20T20:05:08.877Z,2.20
2022-09-20T20:07:59.780Z,2.40
2022-09-20T20:10:59.020Z,1.90
2022-09-20T20:13:52.325Z,2.20
2022-09-20T20:16:19.637Z,2.20
2022-09-20T20:18:50.674Z,2.30
2022-09-20T20:21:24.652Z,2.30
2022-09-20T20:23:56.133Z,1.88
2022-09-20T20:26:20.707Z,2.03
2022-09-20T20:28:43.135Z,2.20
2022-09-20T20:31:06.700Z,2.28
2022-09-20T20:33:30.224Z,2.47
2022-09-20T20:35:56.947Z,2.30
2022-09-20T20:38:19.970Z,2.35
2022-09-20T20:40:42.564Z,2.00
2022-09-20T20:43:06.231Z,2.20
2022-09-20T20:45:30.162Z,2.20
2022-09-20T20:47:58.673Z,2.22
2022-09-20T20:50:21.271Z,2.03
2022-09-20T20:52:52.575Z,2.20
2022-09-20T20:55:15.775Z,2.10
2022-09-20T20:57:38.407Z,1.98
2022-09-20T21:00:00.983Z,2.40
2022-09-20T21:02:23.542Z,2.10
2022-09-20T21:04:46.741Z,1.98
2022-09-20T21:07:09.284Z,2.00
2022-09-20T21:09:32.111Z,2.03
2022-09-20T21:11:54.714Z,2.08
2022-09-20T21:14:17.318Z,1.90
2022-09-20T21:16:45.461Z,2.15
2022-09-20T21:19:10.317Z,2.20
2022-09-20T21:21:35.398Z,1.95
2022-09-20T21:24:02.641Z,1.90
2022-09-20T21:26:27.775Z,1.98
2022-09-20T21:28:56.878Z,1.92
2022-09-20T21:31:22.409Z,2.05
2022-09-20T21:33:45.180Z,2.03
2022-09-20T21:36:09.291Z,2.03
2022-09-20T21:38:34.859Z,2.03
2022-09-20T21:41:18.196Z,1.67
2022-09-20T21:43:43.143Z,1.85
2022-09-20T21:46:10.258Z,1.90
2022-09-20T21:48:33.670Z,2.05
2022-09-20T21:51:05.235Z,1.98
2022-09-20T21:53:28.480Z,2.00
2022-09-20T21:55:56.129Z,2.10
2022-09-20T21:58:18.649Z,2.00
2022-09-20T22:00:41.140Z,2.20
2022-09-20T22:03:04.047Z,2.08
2022-09-20T22:05:26.879Z,2.20
2022-09-20T22:07:49.420Z,2.70
2022-09-20T22:10:11.882Z,2.20
2022-09-20T22:12:34.448Z,2.22
2022-09-20T22:14:56.917Z,2.23
2022-09-20T22:17:19.647Z,2.38
2022-09-20T22:19:42.358Z,2.50
2022-09-20T22:22:04.908Z,2.22
2022-09-20T22:24:27.399Z,2.60
2022-09-20T22:26:51.182Z,2.08
2022-09-20T22:29:14.576Z,2.53
2022-09-20T22:31:44.715Z,2.40
2022-09-20T22:34:07.351Z,2.42
2022-09-20T22:36:38.810Z,2.38
2022-09-20T22:39:02.336Z,2.53
2022-09-20T22:41:25.476Z,2.47
2022-09-20T22:43:48.769Z,2.45
2022-09-20T22:46:17.139Z,2.50
2022-09-20T22:48:40.573Z,2.50
2022-09-20T22:51:05.608Z,2.50
2022-09-20T22:53:30.027Z,2.83
2022-09-20T22:55:52.440Z,2.58
2022-09-20T22:58:14.958Z,2.80
2022-09-20T23:00:37.495Z,2.90
2022-09-20T23:03:00.218Z,2.97
2022-09-20T23:05:22.774Z,2.60
2022-09-20T23:07:48.763Z,2.63
2022-09-20T23:10:11.250Z,3.08
2022-09-20T23:12:33.779Z,2.90
2022-09-20T23:14:56.305Z,3.00
2022-09-20T23:17:18.951Z,3.13
2022-09-20T23:19:41.671Z,3.03
2022-09-20T23:22:04.504Z,2.92
2022-09-20T23:24:27.019Z,3.65
2022-09-20T23:26:49.580Z,3.50
2022-09-20T23:29:15.054Z,3.35
2022-09-20T23:31:39.752Z,3.40
2022-09-20T23:34:04.850Z,3.30
2022-09-20T23:36:30.209Z,3.35
2022-09-20T23:38:53.023Z,3.58
2022-09-20T23:41:17.623Z,3.80
2022-09-20T23:43:41.410Z,3.90
2022-09-20T23:46:05.186Z,3.83
2022-09-20T23:48:28.603Z,3.88
2022-09-20T23:50:51.332Z,3.50
2022-09-20T23:53:13.824Z,4.25
2022-09-20T23:55:36.396Z,4.10
2022-09-20T23:57:58.936Z,3.67
